Terminal Aerodrome Forecast
Issued by NWS

Home | Current Version | Previous Version | Text Only | Print | Product List | Glossary On
Versions: 1 2 3 4 5 6 7 8 9 10 11 12 13 14 15 16 17 18
000
FTUS46 KLOX 202300
TAFLGB
TAF
KLGB 202330Z 2100/2124 19007KT P6SM SCT080
     FM210100 29007KT P6SM FEW025 SCT080 SCT200
     FM210500 VRB03KT P6SM BKN027
     FM210800 VRB03KT P6SM OVC022
     FM211700 20008KT P6SM FEW027=

USA.gov is the U.S. government's official web portal to all federal, state and local government web resources and services.